Guemes, Washington
Current Conditions -  °F | °C
As of 1:56 PM on Friday 28 Nov 2014 (Local Time) from KNUW Reporting Station
Overcast Overcast  
Wind Chill:   Ceiling: 4000
Heat Index:   Visibility: 10mi
Dew Point:   Wind: 7mph
Humidity: 82%   Direction: 110°ESE
Pressure: 29.49"   Gusts: NA
Location:  48.4652°N, 122.617°W
Report Text: KNUW 282156Z 11006KT 10SM SCT025 BKN040 OVC100 05/02 A2949 RMK AO2 SLP990 T00500022 $
Loading
Personal Weather Stations






























Interactive Weather Map New forecast layout! Learn more

10-Day Weather Forecast

Advertisements
Track Severe Weather on mobile